createdAt,value
2018-09-28T00:00:15.214Z,4.00
2018-09-28T00:01:15.084Z,4.00
2018-09-28T00:02:15.102Z,4.00
2018-09-28T00:03:15.422Z,4.00
2018-09-28T00:04:15.123Z,4.00
2018-09-28T00:05:15.139Z,4.00
2018-09-28T00:06:15.159Z,4.00
2018-09-28T00:07:15.161Z,4.00
2018-09-28T00:08:15.179Z,4.00
2018-09-28T00:09:15.190Z,4.00
2018-09-28T00:10:15.237Z,4.00
2018-09-28T00:11:15.255Z,4.00
2018-09-28T00:12:15.257Z,4.00
2018-09-28T00:13:15.260Z,4.00
2018-09-28T00:14:15.258Z,4.00
2018-09-28T00:15:15.268Z,4.00
2018-09-28T00:16:15.281Z,4.00
2018-09-28T00:17:15.336Z,4.00
2018-09-28T00:18:15.511Z,4.00
2018-09-28T00:19:15.349Z,4.00
2018-09-28T00:20:15.338Z,4.00
2018-09-28T00:21:15.350Z,4.00
2018-09-28T00:22:15.438Z,4.00
2018-09-28T00:23:15.440Z,4.00
2018-09-28T00:24:15.475Z,4.00
2018-09-28T00:25:15.573Z,4.00
2018-09-28T00:26:15.881Z,4.00
2018-09-28T00:27:15.441Z,4.00
2018-09-28T00:28:15.441Z,4.00
2018-09-28T00:29:15.547Z,4.00
2018-09-28T00:30:15.548Z,4.00
2018-09-28T00:31:15.483Z,4.00
2018-09-28T00:32:15.492Z,4.00
2018-09-28T00:33:15.502Z,4.00
2018-09-28T00:34:15.524Z,4.00
2018-09-28T00:35:15.531Z,4.00
2018-09-28T00:36:15.545Z,4.00
2018-09-28T00:37:15.555Z,4.00
2018-09-28T00:38:15.578Z,4.00
2018-09-28T00:39:15.581Z,4.00
2018-09-28T00:40:15.601Z,4.00
2018-09-28T00:41:15.619Z,4.00
2018-09-28T00:42:15.940Z,4.00
2018-09-28T00:43:15.637Z,4.00
2018-09-28T00:44:15.650Z,4.00
2018-09-28T00:45:15.661Z,4.00
2018-09-28T00:46:15.676Z,4.00
2018-09-28T00:47:15.693Z,4.00
2018-09-28T00:48:15.700Z,4.00
2018-09-28T00:49:15.717Z,4.00
2018-09-28T00:50:15.751Z,4.00
2018-09-28T00:51:15.774Z,4.00
2018-09-28T00:52:15.755Z,4.00
2018-09-28T00:53:15.773Z,4.00
2018-09-28T00:54:15.777Z,4.00
2018-09-28T00:55:15.806Z,4.00
2018-09-28T00:56:15.808Z,4.00
2018-09-28T00:57:15.887Z,4.00
2018-09-28T00:58:15.829Z,4.00
2018-09-28T00:59:15.847Z,4.00
2018-09-28T01:00:15.867Z,4.00
2018-09-28T01:01:15.887Z,4.00
2018-09-28T01:02:15.886Z,4.00
2018-09-28T01:03:15.928Z,4.00
2018-09-28T01:04:15.915Z,4.00
2018-09-28T01:05:16.506Z,4.00
2018-09-28T01:06:15.956Z,4.00
2018-09-28T01:07:15.947Z,4.00
2018-09-28T01:08:15.963Z,4.00
2018-09-28T01:09:15.978Z,4.00
2018-09-28T01:10:16.004Z,4.00
2018-09-28T01:11:15.996Z,4.00
2018-09-28T01:12:16.010Z,4.00
2018-09-28T01:13:16.023Z,4.00
2018-09-28T01:14:16.037Z,4.00
2018-09-28T01:15:16.052Z,4.00
2018-09-28T01:16:16.085Z,4.00
2018-09-28T01:17:16.077Z,4.00
2018-09-28T01:18:16.089Z,4.00
2018-09-28T01:19:16.101Z,4.00
2018-09-28T01:20:16.115Z,4.00
2018-09-28T01:21:16.138Z,4.00
2018-09-28T01:22:16.160Z,4.00
2018-09-28T01:23:16.153Z,4.00
2018-09-28T01:24:16.169Z,4.00
2018-09-28T01:25:16.181Z,4.00
2018-09-28T01:26:16.193Z,4.00
2018-09-28T01:27:16.238Z,4.00
2018-09-28T01:28:16.218Z,4.00
2018-09-28T01:29:16.233Z,4.00
2018-09-28T01:30:16.244Z,4.00
2018-09-28T01:31:16.270Z,4.00
2018-09-28T01:32:16.270Z,4.00
2018-09-28T01:33:16.282Z,4.00
2018-09-28T01:34:16.336Z,4.00
2018-09-28T01:35:16.489Z,4.00
2018-09-28T01:36:16.778Z,4.00
2018-09-28T01:37:16.336Z,4.00
2018-09-28T01:38:16.355Z,4.00
2018-09-28T01:39:16.362Z,4.00
2018-09-28T01:40:16.373Z,4.00
2018-09-28T01:41:16.390Z,4.00
2018-09-28T01:42:16.398Z,4.00
2018-09-28T01:43:16.413Z,4.00
2018-09-28T01:44:16.436Z,4.00
2018-09-28T01:45:16.463Z,4.00
2018-09-28T01:46:16.637Z,4.00
2018-09-28T01:47:16.465Z,4.00
2018-09-28T01:48:16.478Z,4.00
2018-09-28T01:49:16.501Z,4.00
2018-09-28T01:50:16.531Z,4.00
2018-09-28T01:51:16.516Z,4.00
2018-09-28T01:52:16.529Z,4.00
2018-09-28T01:53:16.541Z,4.00
2018-09-28T01:54:16.554Z,4.00
2018-09-28T01:55:16.567Z,4.00
2018-09-28T01:56:16.603Z,4.00
2018-09-28T01:57:16.622Z,4.00
2018-09-28T01:58:16.606Z,4.00
2018-09-28T01:59:16.617Z,4.00
2018-09-28T02:00:16.668Z,4.00
2018-09-28T02:01:16.653Z,4.00
2018-09-28T02:02:16.674Z,4.00
2018-09-28T02:03:16.670Z,4.00
2018-09-28T02:04:16.682Z,4.00
2018-09-28T02:05:16.725Z,4.00
2018-09-28T02:06:16.826Z,4.00
2018-09-28T02:07:16.721Z,4.00
2018-09-28T02:08:16.735Z,4.00
2018-09-28T02:09:16.779Z,4.00
2018-09-28T02:10:16.762Z,4.00
2018-09-28T02:11:16.769Z,4.00
2018-09-28T02:12:16.782Z,4.00
2018-09-28T02:13:17.000Z,4.00
2018-09-28T02:14:16.811Z,4.00
2018-09-28T02:15:16.824Z,4.00
2018-09-28T02:16:16.837Z,4.00
2018-09-28T02:17:16.864Z,4.00
2018-09-28T02:18:16.924Z,4.00
2018-09-28T02:19:16.954Z,4.00
2018-09-28T02:20:16.890Z,4.00
2018-09-28T02:21:16.903Z,4.00
2018-09-28T02:22:16.926Z,4.00
2018-09-28T02:23:16.926Z,4.00
2018-09-28T02:24:16.944Z,4.00
2018-09-28T02:25:16.956Z,4.00
2018-09-28T02:26:16.971Z,4.00
2018-09-28T02:27:17.005Z,4.00
2018-09-28T02:28:16.993Z,4.00
2018-09-28T02:29:17.008Z,4.00
2018-09-28T02:30:17.019Z,4.00
2018-09-28T02:31:17.031Z,4.00
2018-09-28T02:32:17.044Z,4.00
2018-09-28T02:33:17.060Z,4.00
2018-09-28T02:34:17.070Z,4.00
2018-09-28T02:35:17.122Z,4.00
2018-09-28T02:36:17.126Z,4.00
2018-09-28T02:37:17.115Z,4.00
2018-09-28T02:38:17.123Z,4.00
2018-09-28T02:39:17.138Z,4.00
2018-09-28T02:40:17.257Z,4.00
2018-09-28T02:41:17.231Z,4.00
2018-09-28T02:42:17.182Z,4.00
2018-09-28T02:43:17.195Z,4.00
2018-09-28T02:44:17.551Z,4.00
2018-09-28T02:45:17.215Z,4.00
2018-09-28T02:46:17.226Z,4.00
2018-09-28T02:47:17.243Z,4.00
2018-09-28T02:48:17.258Z,4.00
2018-09-28T02:49:17.273Z,4.00
2018-09-28T02:50:17.279Z,4.00
2018-09-28T02:51:17.292Z,4.00
2018-09-28T02:52:17.360Z,4.00
2018-09-28T02:53:17.320Z,4.00
2018-09-28T02:54:17.358Z,4.00
2018-09-28T02:55:17.369Z,4.00
2018-09-28T02:56:17.362Z,4.00
2018-09-28T02:57:17.420Z,4.00
2018-09-28T02:58:17.407Z,4.00
2018-09-28T02:59:17.399Z,4.00
2018-09-28T03:00:17.423Z,4.00
2018-09-28T03:01:17.423Z,4.00
2018-09-28T03:02:17.468Z,4.00
2018-09-28T03:03:17.465Z,4.00
2018-09-28T03:04:17.482Z,4.00
2018-09-28T03:05:17.489Z,4.00
2018-09-28T03:06:17.556Z,4.00
2018-09-28T03:07:17.535Z,4.00
2018-09-28T03:08:17.516Z,4.00
2018-09-28T03:09:17.528Z,4.00
2018-09-28T03:10:17.543Z,4.00
2018-09-28T03:11:17.622Z,4.00
2018-09-28T03:12:17.614Z,4.00
2018-09-28T03:13:17.582Z,4.00
2018-09-28T03:14:17.596Z,4.00
2018-09-28T03:15:17.610Z,4.00
2018-09-28T03:16:17.627Z,4.00
2018-09-28T03:17:17.643Z,4.00
2018-09-28T03:18:17.654Z,4.00
2018-09-28T03:19:17.660Z,4.00
2018-09-28T03:20:17.673Z,4.00
2018-09-28T03:21:17.687Z,4.00
2018-09-28T03:22:17.705Z,4.00
2018-09-28T03:23:17.713Z,4.00
2018-09-28T03:24:17.728Z,4.00
2018-09-28T03:25:17.754Z,4.00
2018-09-28T03:26:17.840Z,4.00
2018-09-28T03:27:17.863Z,4.00
2018-09-28T03:28:17.847Z,4.00
2018-09-28T03:29:17.794Z,4.00
2018-09-28T03:30:17.808Z,4.00
2018-09-28T03:31:17.818Z,4.00
2018-09-28T03:32:17.832Z,4.00
2018-09-28T03:33:17.846Z,4.00
2018-09-28T03:34:17.866Z,4.00
2018-09-28T03:35:17.869Z,4.00
2018-09-28T03:36:17.907Z,4.00
2018-09-28T03:37:17.899Z,4.00
2018-09-28T03:38:17.914Z,4.00
2018-09-28T03:39:17.925Z,4.00
2018-09-28T03:40:17.939Z,4.00
2018-09-28T03:41:17.953Z,4.00
2018-09-28T03:42:17.963Z,4.00
2018-09-28T03:43:17.975Z,4.00
2018-09-28T03:44:17.997Z,4.00
2018-09-28T03:45:18.009Z,4.00
2018-09-28T03:46:18.025Z,4.00
2018-09-28T03:47:18.032Z,4.00
2018-09-28T03:48:18.044Z,4.00
2018-09-28T03:49:18.368Z,4.00
2018-09-28T03:50:18.072Z,4.00
2018-09-28T03:51:18.083Z,4.00
2018-09-28T03:52:18.093Z,4.00
2018-09-28T03:53:18.110Z,4.00
2018-09-28T03:54:18.127Z,4.00
2018-09-28T03:55:18.147Z,4.00
2018-09-28T03:56:18.147Z,4.00
2018-09-28T03:57:18.164Z,4.00
2018-09-28T03:58:18.180Z,4.00
2018-09-28T03:59:18.189Z,4.00
2018-09-28T04:00:18.203Z,4.00
2018-09-28T04:01:18.218Z,4.00
2018-09-28T04:02:18.243Z,4.00
2018-09-28T04:03:18.270Z,4.00
2018-09-28T04:04:18.265Z,4.00
2018-09-28T04:05:18.271Z,4.00
2018-09-28T04:06:18.280Z,4.00
2018-09-28T04:07:18.293Z,4.00
2018-09-28T04:08:18.311Z,4.00
2018-09-28T04:09:18.324Z,4.00
2018-09-28T04:10:18.355Z,4.00
2018-09-28T04:11:18.379Z,4.00
2018-09-28T04:12:18.367Z,4.00
2018-09-28T04:13:18.438Z,4.00
2018-09-28T04:14:18.519Z,4.00
2018-09-28T04:15:18.402Z,4.00
2018-09-28T04:16:18.449Z,4.00
2018-09-28T04:17:18.433Z,4.00
2018-09-28T04:18:18.441Z,4.00
2018-09-28T04:19:18.504Z,4.00
2018-09-28T04:20:18.471Z,4.00
2018-09-28T04:21:18.486Z,4.00
2018-09-28T04:22:18.497Z,4.00
2018-09-28T04:23:18.511Z,4.00
2018-09-28T04:24:18.534Z,4.00
2018-09-28T04:25:18.536Z,4.00
2018-09-28T04:26:18.551Z,4.00
2018-09-28T04:27:18.701Z,4.00
2018-09-28T04:28:18.706Z,4.00
2018-09-28T04:29:18.630Z,4.00
2018-09-28T04:30:18.612Z,4.00
2018-09-28T04:31:18.618Z,4.00
2018-09-28T04:32:18.638Z,4.00
2018-09-28T04:33:18.657Z,4.00
2018-09-28T04:34:18.663Z,4.00
2018-09-28T04:35:18.741Z,4.00
2018-09-28T04:36:20.052Z,4.00
2018-09-28T04:37:19.603Z,4.00
2018-09-28T04:38:19.477Z,4.00
2018-09-28T04:39:19.190Z,4.00
2018-09-28T04:40:18.953Z,4.00
2018-09-28T04:41:19.034Z,4.00
2018-09-28T04:42:18.963Z,4.00
2018-09-28T04:43:18.776Z,4.00
2018-09-28T04:44:18.809Z,4.00
2018-09-28T04:45:18.908Z,4.00
2018-09-28T04:46:19.204Z,4.00
2018-09-28T04:49:18.888Z,4.00
2018-09-28T04:50:19.600Z,4.00
2018-09-28T04:51:19.569Z,4.00
2018-09-28T04:52:19.092Z,4.00
2018-09-28T04:53:18.915Z,4.00
2018-09-28T04:54:18.926Z,4.00
2018-09-28T04:55:19.386Z,4.00
2018-09-28T04:56:19.602Z,4.00
2018-09-28T04:57:19.036Z,4.00
2018-09-28T04:58:18.982Z,4.00
2018-09-28T04:59:19.032Z,4.00
2018-09-28T05:00:19.891Z,0.00
2018-09-28T05:01:19.044Z,0.00
2018-09-28T05:02:19.034Z,4.00
2018-09-28T05:03:19.052Z,4.00
2018-09-28T05:04:19.060Z,4.00
2018-09-28T05:05:19.106Z,4.00
2018-09-28T05:06:19.087Z,4.00
2018-09-28T05:07:19.113Z,4.00
2018-09-28T05:08:19.115Z,4.00
2018-09-28T05:09:19.126Z,4.00
2018-09-28T05:10:19.157Z,8.00
2018-09-28T05:11:19.160Z,8.00
2018-09-28T05:12:19.183Z,8.00
2018-09-28T05:13:19.237Z,8.00
2018-09-28T05:14:19.199Z,12.00
2018-09-28T05:15:19.218Z,16.00
2018-09-28T05:16:19.590Z,12.00
2018-09-28T05:17:19.236Z,16.00
2018-09-28T05:18:19.248Z,16.00
2018-09-28T05:19:19.855Z,16.00
2018-09-28T05:20:20.491Z,20.00
2018-09-28T05:21:20.946Z,24.00
2018-09-28T05:22:20.065Z,28.00
2018-09-28T05:23:19.313Z,28.00
2018-09-28T05:24:19.331Z,36.00
2018-09-28T05:25:19.426Z,32.00
2018-09-28T05:26:19.364Z,40.00
2018-09-28T05:27:19.371Z,40.00
2018-09-28T05:28:19.393Z,48.00
2018-09-28T05:29:19.399Z,48.00
2018-09-28T05:30:19.443Z,48.00
2018-09-28T05:31:19.481Z,56.00
2018-09-28T05:32:19.607Z,56.00
2018-09-28T05:33:19.690Z,56.00
2018-09-28T05:34:20.181Z,56.00
2018-09-28T05:35:19.470Z,60.00
2018-09-28T05:36:19.496Z,64.00
2018-09-28T05:37:19.634Z,68.00
2018-09-28T05:38:19.510Z,72.00
2018-09-28T05:39:19.865Z,88.00
2018-09-28T05:40:19.536Z,96.00
2018-09-28T05:41:20.612Z,100.00
2018-09-28T05:43:19.587Z,100.00
2018-09-28T05:44:19.590Z,100.00
2018-09-28T05:45:19.644Z,104.00
2018-09-28T05:46:19.666Z,112.00
2018-09-28T05:47:19.628Z,124.00
2018-09-28T05:48:19.644Z,140.00
2018-09-28T05:49:19.657Z,156.00
2018-09-28T05:50:19.693Z,168.00
2018-09-28T05:51:19.752Z,172.00
2018-09-28T05:52:19.730Z,168.00
2018-09-28T05:53:19.736Z,168.00
2018-09-28T05:54:20.473Z,168.00
2018-09-28T05:55:19.740Z,192.00
2018-09-28T05:56:19.793Z,208.00
2018-09-28T05:57:19.763Z,216.00
2018-09-28T05:58:19.784Z,216.00
2018-09-28T05:59:19.794Z,220.00
2018-09-28T06:00:19.808Z,236.00
2018-09-28T06:01:19.820Z,252.00
2018-09-28T06:02:19.898Z,264.00
2018-09-28T06:03:19.856Z,288.00
2018-09-28T06:04:20.075Z,296.00
2018-09-28T06:05:19.908Z,260.00
2018-09-28T06:06:19.886Z,244.00
2018-09-28T06:07:19.974Z,240.00
2018-09-28T06:08:19.914Z,256.00
2018-09-28T06:09:19.946Z,232.00
2018-09-28T06:10:20.093Z,216.00
2018-09-28T06:11:20.007Z,232.00
2018-09-28T06:12:19.987Z,236.00
2018-09-28T06:13:20.291Z,236.00
2018-09-28T06:14:19.993Z,232.00
2018-09-28T06:15:22.375Z,236.00
2018-09-28T06:16:20.053Z,240.00
2018-09-28T06:17:20.034Z,244.00
2018-09-28T06:18:20.115Z,240.00
2018-09-28T06:19:20.062Z,224.00
2018-09-28T06:20:20.085Z,220.00
2018-09-28T06:21:20.092Z,220.00
2018-09-28T06:22:20.159Z,196.00
2018-09-28T06:23:20.110Z,188.00
2018-09-28T06:24:20.231Z,188.00
2018-09-28T06:25:20.143Z,188.00
2018-09-28T06:26:20.171Z,180.00
2018-09-28T06:27:20.169Z,188.00
2018-09-28T06:28:20.185Z,188.00
2018-09-28T06:29:20.194Z,180.00
2018-09-28T06:30:20.211Z,172.00
2018-09-28T06:31:20.217Z,176.00
2018-09-28T06:32:20.233Z,176.00
2018-09-28T06:33:20.249Z,164.00
2018-09-28T06:34:20.352Z,172.00
2018-09-28T06:35:20.273Z,184.00
2018-09-28T06:36:20.392Z,188.00
2018-09-28T06:37:20.300Z,204.00
2018-09-28T06:38:20.320Z,204.00
2018-09-28T06:39:20.324Z,188.00
2018-09-28T06:40:20.341Z,184.00
2018-09-28T06:41:20.353Z,176.00
2018-09-28T06:42:20.439Z,172.00
2018-09-28T06:43:20.377Z,180.00
2018-09-28T06:44:20.416Z,216.00
2018-09-28T06:45:20.406Z,296.00
2018-09-28T06:46:20.419Z,352.00
2018-09-28T06:47:20.456Z,400.00
2018-09-28T06:48:20.495Z,452.00
2018-09-28T06:49:20.457Z,496.00
2018-09-28T06:50:20.472Z,536.00
2018-09-28T06:51:20.495Z,556.00
2018-09-28T06:52:20.534Z,544.00
2018-09-28T06:53:20.521Z,532.00
2018-09-28T06:54:20.713Z,528.00
2018-09-28T06:55:20.542Z,520.00
2018-09-28T06:56:20.566Z,564.00
2018-09-28T06:57:20.567Z,608.00
2018-09-28T06:58:20.670Z,628.00
2018-09-28T06:59:20.597Z,624.00
2018-09-28T07:00:20.679Z,644.00
2018-09-28T07:01:20.617Z,656.00
2018-09-28T07:02:20.633Z,652.00
2018-09-28T07:03:20.646Z,660.00
2018-09-28T07:04:20.659Z,676.00
2018-09-28T07:05:20.673Z,672.00
2018-09-28T07:06:20.802Z,692.00
2018-09-28T07:07:20.697Z,748.00
2018-09-28T07:08:20.714Z,804.00
2018-09-28T07:09:20.776Z,844.00
2018-09-28T07:10:20.784Z,880.00
2018-09-28T07:11:20.752Z,900.00
2018-09-28T07:12:20.789Z,936.00
2018-09-28T07:13:20.778Z,996.00
2018-09-28T07:14:20.792Z,1044.00
2018-09-28T07:15:20.817Z,988.00
2018-09-28T07:16:20.881Z,868.00
2018-09-28T07:17:20.833Z,820.00
2018-09-28T07:18:20.911Z,868.00
2018-09-28T07:19:20.861Z,988.00
2018-09-28T07:20:20.874Z,1092.00
2018-09-28T07:21:20.887Z,1132.00
2018-09-28T07:22:20.904Z,1152.00
2018-09-28T07:23:20.913Z,1172.00
2018-09-28T07:24:20.989Z,1180.00
2018-09-28T07:25:21.532Z,1216.00
2018-09-28T07:26:20.965Z,1280.00
2018-09-28T07:27:20.988Z,1340.00
2018-09-28T07:28:20.983Z,1384.00
2018-09-28T07:29:20.995Z,1380.00
2018-09-28T07:30:21.103Z,1320.00
2018-09-28T07:31:21.021Z,1364.00
2018-09-28T07:32:22.060Z,1476.00
2018-09-28T07:33:21.051Z,1488.00
2018-09-28T07:34:21.075Z,1372.00
2018-09-28T07:35:21.088Z,1272.00
2018-09-28T07:36:21.191Z,1228.00
2018-09-28T07:37:21.107Z,1264.00
2018-09-28T07:38:21.118Z,1340.00
2018-09-28T07:39:21.131Z,1392.00
2018-09-28T07:40:21.475Z,1468.00
2018-09-28T07:41:21.158Z,1528.00
2018-09-28T07:42:21.237Z,1592.00
2018-09-28T07:43:21.260Z,1664.00
2018-09-28T07:44:21.211Z,1764.00
2018-09-28T07:45:22.513Z,1868.00
2018-09-28T07:46:21.252Z,1960.00
2018-09-28T07:47:21.255Z,1992.00
2018-09-28T07:48:21.266Z,1968.00
2018-09-28T07:49:21.269Z,1940.00
2018-09-28T07:50:21.283Z,1904.00
2018-09-28T07:51:21.299Z,1892.00
2018-09-28T07:52:21.313Z,1908.00
2018-09-28T07:53:21.334Z,1936.00
2018-09-28T07:54:21.345Z,1976.00
2018-09-28T07:55:21.370Z,2044.00
2018-09-28T07:56:21.368Z,2012.00
2018-09-28T07:57:21.380Z,1856.00
2018-09-28T07:58:21.393Z,1596.00
2018-09-28T07:59:21.490Z,1348.00
2018-09-28T08:00:23.116Z,1220.00
2018-09-28T08:01:21.452Z,1184.00
2018-09-28T08:02:21.518Z,1196.00
2018-09-28T08:03:21.471Z,1204.00
2018-09-28T08:04:21.473Z,1248.00
2018-09-28T08:05:21.550Z,1356.00
2018-09-28T08:06:21.506Z,1492.00
2018-09-28T08:07:21.516Z,1552.00
2018-09-28T08:08:21.685Z,1520.00
2018-09-28T08:09:21.544Z,1564.00
2018-09-28T08:10:21.560Z,1656.00
2018-09-28T08:11:21.590Z,1704.00
2018-09-28T08:12:21.589Z,1692.00
2018-09-28T08:13:21.598Z,1652.00
2018-09-28T08:14:21.612Z,1616.00
2018-09-28T08:15:21.629Z,1632.00
2018-09-28T08:16:21.660Z,1668.00
2018-09-28T08:17:21.655Z,1780.00
2018-09-28T08:18:21.668Z,1948.00
2018-09-28T08:19:21.837Z,2120.00
2018-09-28T08:20:21.704Z,2180.00
2018-09-28T08:21:21.709Z,2168.00
2018-09-28T08:22:21.722Z,2072.00
2018-09-28T08:23:21.820Z,1972.00
2018-09-28T08:24:21.751Z,1872.00
2018-09-28T08:25:22.074Z,1748.00
2018-09-28T08:26:21.780Z,1644.00
2018-09-28T08:27:22.426Z,1584.00
2018-09-28T08:28:21.819Z,1632.00
2018-09-28T08:29:21.821Z,1680.00
2018-09-28T08:30:21.871Z,1748.00
2018-09-28T08:31:21.849Z,1784.00
2018-09-28T08:32:21.898Z,1788.00
2018-09-28T08:33:21.909Z,1764.00
2018-09-28T08:34:21.890Z,1812.00
2018-09-28T08:35:21.905Z,1960.00
2018-09-28T08:36:22.041Z,2156.00
2018-09-28T08:37:21.941Z,2312.00
2018-09-28T08:38:21.950Z,2340.00
2018-09-28T08:39:22.044Z,2264.00
2018-09-28T08:40:21.980Z,2224.00
2018-09-28T08:41:21.986Z,2108.00
2018-09-28T08:42:22.003Z,2016.00
2018-09-28T08:43:22.066Z,1944.00
2018-09-28T08:44:22.521Z,1908.00
2018-09-28T08:45:22.093Z,2064.00
2018-09-28T08:46:22.208Z,2264.00
2018-09-28T08:47:22.090Z,2252.00
2018-09-28T08:48:22.093Z,2184.00
2018-09-28T08:49:22.189Z,2076.00
2018-09-28T08:50:22.117Z,2088.00
2018-09-28T08:51:22.125Z,2180.00
2018-09-28T08:52:22.140Z,2312.00
2018-09-28T08:53:22.162Z,2472.00
2018-09-28T08:54:22.168Z,2656.00
2018-09-28T08:55:22.384Z,2716.00
2018-09-28T08:56:22.194Z,2844.00
2018-09-28T08:57:22.209Z,3056.00
2018-09-28T08:58:22.233Z,3164.00
2018-09-28T08:59:22.321Z,3196.00
2018-09-28T09:00:22.258Z,3080.00
2018-09-28T09:01:22.266Z,2964.00
2018-09-28T09:02:22.283Z,2848.00
2018-09-28T09:03:22.296Z,2964.00
2018-09-28T09:04:22.620Z,3088.00
2018-09-28T09:05:22.322Z,3076.00
2018-09-28T09:06:22.337Z,2996.00
2018-09-28T09:07:22.358Z,2884.00
2018-09-28T09:08:22.365Z,2724.00
2018-09-28T09:09:22.387Z,2572.00
2018-09-28T09:10:22.393Z,2492.00
2018-09-28T09:11:22.407Z,2516.00
2018-09-28T09:12:22.425Z,2376.00
2018-09-28T09:13:22.449Z,2228.00
2018-09-28T09:14:22.453Z,2032.00
2018-09-28T09:15:22.466Z,1928.00
2018-09-28T09:16:22.478Z,1900.00
2018-09-28T09:17:22.509Z,1908.00
2018-09-28T09:18:22.597Z,1952.00
2018-09-28T09:19:22.533Z,1992.00
2018-09-28T09:20:22.539Z,2040.00
2018-09-28T09:21:23.925Z,2056.00
2018-09-28T09:22:24.070Z,2092.00
2018-09-28T09:23:22.599Z,2084.00
2018-09-28T09:24:22.590Z,2072.00
2018-09-28T09:25:22.605Z,2128.00
2018-09-28T09:26:22.641Z,2232.00
2018-09-28T09:27:22.716Z,2328.00
2018-09-28T09:28:22.647Z,2368.00
2018-09-28T09:29:22.864Z,2320.00
2018-09-28T09:30:22.677Z,2276.00
2018-09-28T09:31:22.691Z,2228.00
2018-09-28T09:32:22.712Z,2108.00
2018-09-28T09:33:22.756Z,1996.00
2018-09-28T09:34:22.745Z,1904.00
2018-09-28T09:35:22.752Z,1840.00
2018-09-28T09:36:22.770Z,1888.00
2018-09-28T09:37:23.054Z,2024.00
2018-09-28T09:38:23.023Z,2208.00
2018-09-28T09:39:23.067Z,2356.00
2018-09-28T09:40:22.826Z,2460.00
2018-09-28T09:41:22.834Z,2540.00
2018-09-28T09:42:22.845Z,2628.00
2018-09-28T09:43:22.859Z,2668.00
2018-09-28T09:44:22.873Z,2660.00
2018-09-28T09:45:22.912Z,2664.00
2018-09-28T09:46:22.936Z,2712.00
2018-09-28T09:47:22.976Z,2776.00
2018-09-28T09:48:23.015Z,2796.00
2018-09-28T09:49:22.959Z,2792.00
2018-09-28T09:50:22.971Z,2768.00
2018-09-28T09:51:22.972Z,2760.00
2018-09-28T09:52:22.988Z,2720.00
2018-09-28T09:53:23.018Z,2624.00
2018-09-28T09:54:23.014Z,2552.00
2018-09-28T09:55:23.035Z,2560.00
2018-09-28T09:56:23.055Z,2620.00
2018-09-28T09:57:23.060Z,2768.00
2018-09-28T09:58:23.074Z,2864.00
2018-09-28T09:59:23.087Z,2900.00
2018-09-28T10:00:23.100Z,2864.00
2018-09-28T10:01:23.117Z,2832.00
2018-09-28T10:02:23.146Z,2752.00
2018-09-28T10:03:23.148Z,2680.00
2018-09-28T10:04:23.158Z,2660.00
2018-09-28T10:05:23.193Z,2728.00
2018-09-28T10:06:23.199Z,2888.00
2018-09-28T10:07:23.230Z,3028.00
2018-09-28T10:08:23.214Z,3100.00
2018-09-28T10:09:23.247Z,3148.00
2018-09-28T10:10:23.246Z,3196.00
2018-09-28T10:11:23.261Z,3212.00
2018-09-28T10:12:23.368Z,3140.00
2018-09-28T10:13:23.290Z,3036.00
2018-09-28T10:14:23.303Z,2996.00
2018-09-28T10:15:23.314Z,3056.00
2018-09-28T10:16:23.329Z,3120.00
2018-09-28T10:17:23.348Z,3144.00
2018-09-28T10:18:23.372Z,3216.00
2018-09-28T10:19:23.474Z,3356.00
2018-09-28T10:20:23.421Z,3520.00
2018-09-28T10:21:23.416Z,3536.00
2018-09-28T10:22:23.416Z,3488.00
2018-09-28T10:23:23.431Z,3524.00
2018-09-28T10:24:23.444Z,3540.00
2018-09-28T10:25:23.491Z,3564.00
2018-09-28T10:26:23.474Z,3544.00
2018-09-28T10:27:23.536Z,3512.00
2018-09-28T10:28:23.829Z,3512.00
2018-09-28T10:29:23.525Z,3544.00
2018-09-28T10:30:23.535Z,3604.00
2018-09-28T10:31:23.569Z,3552.00
2018-09-28T10:32:23.560Z,3276.00
2018-09-28T10:33:23.617Z,2896.00
2018-09-28T10:34:23.712Z,2620.00
2018-09-28T10:35:23.916Z,2564.00
2018-09-28T10:36:23.655Z,2484.00
2018-09-28T10:37:23.635Z,2436.00
2018-09-28T10:38:23.649Z,2464.00
2018-09-28T10:39:23.733Z,2364.00
2018-09-28T10:40:23.692Z,2264.00
2018-09-28T10:41:23.697Z,2224.00
2018-09-28T10:42:23.712Z,2348.00
2018-09-28T10:43:23.719Z,2632.00
2018-09-28T10:44:23.748Z,2904.00
2018-09-28T10:45:23.823Z,3380.00
2018-09-28T10:46:23.784Z,3536.00
2018-09-28T10:47:23.778Z,3484.00
2018-09-28T10:48:23.795Z,3536.00
2018-09-28T10:49:23.821Z,3532.00
2018-09-28T10:50:23.820Z,3636.00
2018-09-28T10:51:23.925Z,3812.00
2018-09-28T10:52:24.204Z,4388.00
2018-09-28T10:53:23.912Z,4468.00
2018-09-28T10:54:23.882Z,4628.00
2018-09-28T10:55:23.909Z,5072.00
2018-09-28T10:56:23.905Z,5260.00
2018-09-28T10:57:24.367Z,5436.00
2018-09-28T10:58:24.034Z,5540.00
2018-09-28T10:59:23.963Z,5284.00
2018-09-28T11:00:23.987Z,5264.00
2018-09-28T11:01:23.984Z,5456.00
2018-09-28T11:02:24.005Z,5160.00
2018-09-28T11:03:24.052Z,5284.00
2018-09-28T11:04:24.148Z,5148.00
2018-09-28T11:05:24.058Z,5044.00
2018-09-28T11:06:24.085Z,5020.00
2018-09-28T11:07:24.878Z,4840.00
2018-09-28T11:08:24.136Z,4860.00
2018-09-28T11:09:24.200Z,4760.00
2018-09-28T11:10:24.200Z,4668.00
2018-09-28T11:11:24.131Z,4792.00
2018-09-28T11:12:24.140Z,4920.00
2018-09-28T11:13:24.189Z,4936.00
2018-09-28T11:14:24.218Z,5116.00
2018-09-28T11:15:24.246Z,4952.00
2018-09-28T11:16:24.513Z,5140.00
2018-09-28T11:17:24.328Z,5348.00
2018-09-28T11:18:24.255Z,5144.00
2018-09-28T11:19:24.250Z,5048.00
2018-09-28T11:20:24.259Z,5000.00
2018-09-28T11:21:24.461Z,4772.00
2018-09-28T11:22:24.288Z,4548.00
2018-09-28T11:23:24.307Z,4372.00
2018-09-28T11:24:24.317Z,4276.00
2018-09-28T11:25:24.341Z,4192.00
2018-09-28T11:26:24.407Z,4084.00
2018-09-28T11:27:26.369Z,3912.00
2018-09-28T11:28:24.375Z,3796.00
2018-09-28T11:29:24.393Z,3856.00
2018-09-28T11:30:24.772Z,3604.00
2018-09-28T11:31:24.451Z,3472.00
2018-09-28T11:32:24.439Z,3300.00
2018-09-28T11:33:24.583Z,3072.00
2018-09-28T11:34:24.492Z,2876.00
2018-09-28T11:35:24.638Z,2592.00
2018-09-28T11:36:24.508Z,2320.00
2018-09-28T11:37:24.515Z,2316.00
2018-09-28T11:38:24.526Z,2524.00
2018-09-28T11:39:24.624Z,2824.00
2018-09-28T11:40:24.563Z,2820.00
2018-09-28T11:41:24.575Z,2624.00
2018-09-28T11:42:24.587Z,2648.00
2018-09-28T11:43:24.625Z,2704.00
2018-09-28T11:44:24.625Z,2780.00
2018-09-28T11:45:24.684Z,2676.00
2018-09-28T11:46:24.645Z,2632.00
2018-09-28T11:47:24.693Z,2600.00
2018-09-28T11:48:24.678Z,2560.00
2018-09-28T11:49:24.689Z,2588.00
2018-09-28T11:50:24.722Z,2612.00
2018-09-28T11:51:24.849Z,2644.00
2018-09-28T11:52:24.742Z,2728.00
2018-09-28T11:53:24.745Z,2936.00
2018-09-28T11:54:24.757Z,3320.00
2018-09-28T11:55:24.798Z,3544.00
2018-09-28T11:56:24.787Z,3780.00
2018-09-28T11:57:24.875Z,3636.00
2018-09-28T11:58:24.818Z,3844.00
2018-09-28T11:59:24.831Z,4116.00
2018-09-28T12:00:24.846Z,4304.00
2018-09-28T12:01:24.863Z,4356.00
2018-09-28T12:02:25.030Z,4424.00
2018-09-28T12:03:25.001Z,4352.00
2018-09-28T12:04:24.903Z,4216.00
2018-09-28T12:05:24.917Z,4240.00
2018-09-28T12:06:25.019Z,3952.00
2018-09-28T12:07:24.955Z,4092.00
2018-09-28T12:08:24.980Z,4140.00
2018-09-28T12:09:25.028Z,4068.00
2018-09-28T12:10:24.992Z,3812.00
2018-09-28T12:11:25.006Z,3776.00
2018-09-28T12:12:25.075Z,3820.00
2018-09-28T12:13:25.042Z,3372.00
2018-09-28T12:14:25.047Z,3832.00
2018-09-28T12:15:25.144Z,4036.00
2018-09-28T12:16:25.294Z,4144.00
2018-09-28T12:17:25.875Z,4428.00
2018-09-28T12:18:25.211Z,4184.00
2018-09-28T12:19:25.119Z,3004.00
2018-09-28T12:20:25.135Z,3616.00
2018-09-28T12:21:25.291Z,3780.00
2018-09-28T12:22:25.170Z,3528.00
2018-09-28T12:23:25.183Z,2840.00
2018-09-28T12:24:25.467Z,2932.00
2018-09-28T12:25:25.232Z,3112.00
2018-09-28T12:26:25.227Z,3104.00
2018-09-28T12:27:25.294Z,3068.00
2018-09-28T12:28:25.254Z,3040.00
2018-09-28T12:29:25.268Z,2732.00
2018-09-28T12:30:25.377Z,2596.00
2018-09-28T12:31:25.293Z,2376.00
2018-09-28T12:32:25.332Z,2696.00
2018-09-28T12:33:25.483Z,2848.00
2018-09-28T12:34:25.341Z,2916.00
2018-09-28T12:35:25.387Z,2836.00
2018-09-28T12:36:26.315Z,2596.00
2018-09-28T12:37:25.383Z,2308.00
2018-09-28T12:38:25.398Z,2908.00
2018-09-28T12:39:25.431Z,2972.00
2018-09-28T12:40:25.429Z,2984.00
2018-09-28T12:41:25.453Z,3004.00